Chesapeake, Ohio
Current Conditions -  °F | °C
As of 11:51 AM on Friday 28 Nov 2014 (Local Time) from KHTS Reporting Station
Overcast Overcast  
Wind Chill: 25°   Ceiling: 3300
Heat Index: 32°   Visibility: 10mi
Dew Point: 18°   Wind: 8mph
Humidity: 56%   Direction: 230°SW
Pressure: 30.36"   Gusts: NA
Location:  38.43°N, 82.46°W
Report Text: KHTS 281651Z 23007KT 180V260 10SM OVC033 00/M08 A3036 RMK AO2 SLP288 T00001078
Loading
Personal Weather Stations






























Interactive Weather Map New forecast layout! Learn more

10-Day Weather Forecast

Advertisements
Track Severe Weather on mobile